• Join FlightAware (Why Join?)
  • Login
  • US Flag 
03:12AM EDT


 

Airport Tracker/Info


-or-


 

Live Flight TrackerFlight Track Log ✈ KAL61 ✈ 05-Jun-2013 ✈ RKSI / ICN - KLAX

Flight Track Log - Related Links

Times and Time Zones

All times are in EDT time to prevent confusion due to time zone crossing. See the KAL61 flight status page for this flight to view local times or setup timezone preferences in your user account.

Time Position Orientation Groundspeed Altitude Reporting Facility
EDT Latitude Longitude Course Direction KTS MPH feet Rate Location/Type
08:59AM 37.5120 127.5526 79° East  Level FlightAware Approximate
09:00AM 37.5320 127.7418 78° East  Level FlightAware Approximate
09:01AM 37.5627 127.9297 79° East  Level FlightAware Approximate
09:02AM 37.5924 128.1179 79° East  Level FlightAware Approximate
09:03AM 37.6232 128.3059 78° East  Level FlightAware Approximate
09:04AM 37.6554 128.4935 81° East  Level FlightAware Approximate
09:05AM 37.6848 128.6813 74° East  Level FlightAware Approximate
09:06AM 37.6407 128.8419 119° Southeast  Level FlightAware Approximate
09:07AM 37.5646 129.0081 121° Southeast  Level FlightAware Approximate
09:08AM 37.4863 129.1725 121° Southeast  Level FlightAware Approximate
09:09AM 37.4099 129.3381 118° Southeast  Level FlightAware Approximate
09:10AM 37.3328 129.5029 122° Southeast  Level FlightAware Approximate
09:11AM 37.2526 129.6654 122° Southeast  Level FlightAware Approximate
09:12AM 37.1723 129.8275 122° Southeast  Level FlightAware Approximate
09:13AM 37.0917 129.9893 122° Southeast  Level FlightAware Approximate
09:14AM 37.0109 130.1507 122° Southeast  Level FlightAware Approximate
09:15AM 36.9299 130.3118 122° Southeast  Level FlightAware Approximate
09:16AM 36.8486 130.4726 122° Southeast  Level FlightAware Approximate
09:17AM 36.7672 130.6330 122° Southeast  Level FlightAware Approximate
09:18AM 36.6858 130.7933 122° Southeast  Level FlightAware Approximate
09:19AM 36.6044 130.9534 122° Southeast  Level FlightAware Approximate
09:20AM 36.5228 131.1132 122° Southeast  Level FlightAware Approximate
09:21AM 36.4409 131.2726 123° Southeast  Level FlightAware Approximate
09:22AM 36.3661 131.4345 92° East  Level FlightAware Approximate
09:23AM 36.3602 131.6233 92° East  Level FlightAware Approximate
09:24AM 36.3540 131.8120 92° East  Level FlightAware Approximate
09:25AM 36.3475 132.0006 92° East  Level FlightAware Approximate
09:26AM 36.3407 132.1892 93° East  Level FlightAware Approximate
09:27AM 36.3336 132.3778 93° East  Level FlightAware Approximate
09:28AM 36.3263 132.5664 93° East  Level FlightAware Approximate
09:29AM 36.3186 132.7549 93° East  Level FlightAware Approximate
09:30AM 36.3106 132.9434 93° East  Level FlightAware Approximate
09:31AM 36.3023 133.1318 93° East  Level FlightAware Approximate
09:32AM 36.2938 133.3202 93° East  Level FlightAware Approximate
09:33AM 36.2849 133.5086 93° East  Level FlightAware Approximate
09:34AM 36.2757 133.6969 93° East  Level FlightAware Approximate
09:35AM 36.2663 133.8852 94° East  Level FlightAware Approximate
09:36AM 36.2565 134.0734 94° East  Level FlightAware Approximate
09:37AM 36.2465 134.2616 94° East  Level FlightAware Approximate
09:38AM 36.2361 134.4497 94° East  Level FlightAware Approximate
09:39AM 36.2249 134.6378 94° East  Level FlightAware Approximate
09:40AM 36.2133 134.8257 94° East  Level FlightAware Approximate
09:41AM 36.2013 135.0136 94° East  Level FlightAware Approximate
09:42AM 36.2000 135.2020 90° East  Level FlightAware Approximate
09:43AM 36.1884 135.3899 95° East  Level FlightAware Approximate
09:44AM 36.1756 135.5776 95° East  Level FlightAware Approximate
09:45AM 36.1624 135.7653 95° East  Level FlightAware Approximate
09:46AM 36.1490 135.9530 95° East  Level FlightAware Approximate
09:47AM 36.1353 136.1405 95° East  Level FlightAware Approximate
09:48AM 36.1217 136.3236 95° East  Level FlightAware Approximate
09:49AM 36.1077 136.5066 95° East  Level FlightAware Approximate
09:50AM 36.0935 136.6895 95° East  Level FlightAware Approximate
09:51AM 36.0790 136.8724 96° East  Level FlightAware Approximate
09:52AM 36.0642 137.0552 96° East  Level FlightAware Approximate
09:53AM 36.0491 137.2379 96° East  Level FlightAware Approximate
09:54AM 36.0338 137.4206 96° East  Level FlightAware Approximate
09:55AM 36.0182 137.6032 96° East  Level FlightAware Approximate
09:56AM 36.0023 137.7857 96° East  Level FlightAware Approximate
09:57AM 35.9861 137.9681 96° East  Level FlightAware Approximate
09:58AM 35.9697 138.1505 96° East  Level FlightAware Approximate
09:59AM 35.9538 138.3329 96° East  Level FlightAware Approximate
10:00AM 35.9379 138.5153 96° East  Level FlightAware Approximate
10:01AM 35.9217 138.6976 96° East  Level FlightAware Approximate
10:02AM 35.9053 138.8798 96° East  Level FlightAware Approximate
10:03AM 35.8885 139.0619 96° East  Level FlightAware Approximate
10:04AM 35.8715 139.2440 97° East  Level FlightAware Approximate
10:05AM 35.8543 139.4260 97° East  Level FlightAware Approximate
10:06AM 35.8367 139.6079 97° East  Level FlightAware Approximate
10:07AM 35.8189 139.7897 97° East  Level FlightAware Approximate
10:08AM 35.8008 139.9714 97° East  Level FlightAware Approximate
10:09AM 35.7824 140.1531 97° East  Level FlightAware Approximate
10:10AM 35.7637 140.3347 97° East  Level FlightAware Approximate
10:11AM 35.7449 140.5161 97° East  Level FlightAware Approximate
10:12AM 35.7258 140.6976 97° East  Level FlightAware Approximate
10:13AM 35.7228 140.8795 85° East  Level FlightAware Approximate
10:14AM 35.7342 141.0618 86° East  Level FlightAware Approximate
10:15AM 35.7453 141.2443 86° East  Level FlightAware Approximate
10:16AM 35.7561 141.4267 86° East  Level FlightAware Approximate
10:17AM 35.7667 141.6093 86° East  Level FlightAware Approximate
10:18AM 35.7769 141.7919 86° East  Level FlightAware Approximate
10:19AM 35.7869 141.9745 86° East  Level FlightAware Approximate
10:20AM 35.7967 142.1572 86° East  Level FlightAware Approximate
10:21AM 35.8061 142.3399 86° East  Level FlightAware Approximate
10:22AM 35.8153 142.5226 86° East  Level FlightAware Approximate
10:23AM 35.8253 142.7054 86° East  Level FlightAware Approximate
10:24AM 35.8352 142.8881 86° East  Level FlightAware Approximate
10:25AM 35.8448 143.0709 86° East  Level FlightAware Approximate
10:26AM 35.8541 143.2537 86° East  Level FlightAware Approximate
10:27AM 35.8632 143.4366 86° East  Level FlightAware Approximate
10:28AM 35.8719 143.6195 87° East  Level FlightAware Approximate
10:29AM 35.8804 143.8025 87° East  Level FlightAware Approximate
10:30AM 35.9035 143.9830 78° East  Level FlightAware Approximate
10:31AM 35.9344 144.1624 78° East  Level FlightAware Approximate
10:32AM 35.9650 144.3419 78° East  Level FlightAware Approximate
10:33AM 35.9953 144.5215 78° East  Level FlightAware Approximate
10:34AM 36.0253 144.7013 78° East  Level FlightAware Approximate
10:35AM 36.0551 144.8812 78° East  Level FlightAware Approximate
10:36AM 36.0846 145.0613 78° East  Level FlightAware Approximate
10:37AM 36.1138 145.2415 79° East  Level FlightAware Approximate
10:38AM 36.1428 145.4218 79° East  Level FlightAware Approximate
10:39AM 36.1830 145.5986 73° East  Level FlightAware Approximate
10:40AM 36.2342 145.7712 68° East  Level FlightAware Approximate
10:41AM 36.2898 145.9420 68° East  Level FlightAware Approximate
10:42AM 36.3452 146.1130 68° East  Level FlightAware Approximate
10:43AM 36.4002 146.2842 74° East  Level FlightAware Approximate
10:44AM 36.4412 146.4616 74° East  Level FlightAware Approximate
10:45AM 36.4819 146.6392 74° East  Level FlightAware Approximate
10:46AM 36.5224 146.8169 74° East  Level FlightAware Approximate
10:47AM 36.5626 146.9948 74° East  Level FlightAware Approximate
10:48AM 36.6025 147.1729 74° East  Level FlightAware Approximate
10:49AM 36.6422 147.3513 74° East  Level FlightAware Approximate
10:50AM 36.6815 147.5297 75° East  Level FlightAware Approximate
10:51AM 36.7207 147.7084 75° East  Level FlightAware Approximate
10:52AM 36.7595 147.8872 75° East  Level FlightAware Approximate
10:53AM 36.7981 148.0663 75° East  Level FlightAware Approximate
10:54AM 36.8364 148.2455 75° East  Level FlightAware Approximate
10:55AM 36.8745 148.4248 75° East  Level FlightAware Approximate
10:56AM 36.8950 148.6083 84° East  Level FlightAware Approximate
10:57AM 36.9099 148.7931 84° East  Level FlightAware Approximate
10:58AM 36.9245 148.9779 84° East  Level FlightAware Approximate
10:59AM 36.9388 149.1628 84° East  Level FlightAware Approximate
11:00AM 36.9528 149.3478 85° East  Level FlightAware Approximate
11:01AM 36.9666 149.5328 85° East  Level FlightAware Approximate
11:02AM 36.9800 149.7179 85° East  Level FlightAware Approximate
11:03AM 36.9932 149.9031 85° East  Level FlightAware Approximate
11:04AM 37.0037 150.0885 87° East  Level FlightAware Approximate
11:05AM 37.0112 150.2742 87° East  Level FlightAware Approximate
11:06AM 37.0185 150.4600 87° East  Level FlightAware Approximate
11:07AM 37.0254 150.6458 87° East  Level FlightAware Approximate
11:08AM 37.0321 150.8316 87° East  Level FlightAware Approximate
11:09AM 37.0384 151.0174 87° East  Level FlightAware Approximate
11:10AM 37.0445 151.2033 88° East  Level FlightAware Approximate
11:11AM 37.0503 151.3892 88° East  Level FlightAware Approximate
11:12AM 37.0558 151.5752 88° East  Level FlightAware Approximate
11:13AM 37.0610 151.7611 88° East  Level FlightAware Approximate
11:14AM 37.0659 151.9471 88° East  Level FlightAware Approximate
11:15AM 37.0706 152.1331 88° East  Level FlightAware Approximate
11:16AM 37.0749 152.3192 88° East  Level FlightAware Approximate
11:17AM 37.0789 152.5052 88° East  Level FlightAware Approximate
11:18AM 37.0827 152.6913 88° East  Level FlightAware Approximate
11:19AM 37.0861 152.8774 89° East  Level FlightAware Approximate
11:20AM 37.0893 153.0635 89° East  Level FlightAware Approximate
11:21AM 37.0922 153.2496 89° East  Level FlightAware Approximate
11:22AM 37.0948 153.4357 89° East  Level FlightAware Approximate
11:23AM 37.0971 153.6219 89° East  Level FlightAware Approximate
11:24AM 37.0991 153.8080 89° East  Level FlightAware Approximate
11:25AM 37.1008 153.9942 89° East  Level FlightAware Approximate
11:26AM 37.1022 154.1804 89° East  Level FlightAware Approximate
11:27AM 37.1034 154.3666 90° East  Level FlightAware Approximate
11:28AM 37.1042 154.5527 90° East  Level FlightAware Approximate
11:29AM 37.1048 154.7389 90° East  Level FlightAware Approximate
11:30AM 37.1050 154.9251 90° East  Level FlightAware Approximate
11:31AM 37.1050 155.1113 90° East  Level FlightAware Approximate
11:32AM 37.1047 155.2975 90° East  Level FlightAware Approximate
11:33AM 37.1041 155.4837 90° East  Level FlightAware Approximate
11:34AM 37.1032 155.6699 90° East  Level FlightAware Approximate
11:35AM 37.1020 155.8560 90° East  Level FlightAware Approximate
11:36AM 37.1005 156.0422 91° East  Level FlightAware Approximate
11:37AM 37.0987 156.2284 91° East  Level FlightAware Approximate
11:38AM 37.0966 156.4145 91° East  Level FlightAware Approximate
11:39AM 37.0943 156.6007 91° East  Level FlightAware Approximate
11:40AM 37.0916 156.7868 91° East  Level FlightAware Approximate
11:41AM 37.0887 156.9729 91° East  Level FlightAware Approximate
11:42AM 37.0855 157.1590 91° East  Level FlightAware Approximate
11:43AM 37.0820 157.3451 91° East  Level FlightAware Approximate
11:44AM 37.0781 157.5312 91° East  Level FlightAware Approximate
11:45AM 37.0740 157.7172 92° East  Level FlightAware Approximate
11:46AM 37.0696 157.9033 92° East  Level FlightAware Approximate
11:47AM 37.0650 158.0893 92° East  Level FlightAware Approximate
11:48AM 37.0600 158.2753 92° East  Level FlightAware Approximate
11:49AM 37.0547 158.4612 92° East  Level FlightAware Approximate
11:50AM 37.0492 158.6471 92° East  Level FlightAware Approximate
11:51AM 37.0433 158.8330 92° East  Level FlightAware Approximate
11:52AM 37.0372 159.0189 92° East  Level FlightAware Approximate
11:53AM 37.0308 159.2047 92° East  Level FlightAware Approximate
11:54AM 37.0241 159.3906 93° East  Level FlightAware Approximate
11:55AM 37.0171 159.5763 93° East  Level FlightAware Approximate
11:56AM 37.0098 159.7621 93° East  Level FlightAware Approximate
11:57AM 37.0022 159.9478 93° East  Level FlightAware Approximate
11:58AM 37.0054 160.1335 87° East  Level FlightAware Approximate
11:59AM 37.0127 160.3192 87° East  Level FlightAware Approximate
12:00PM 37.0196 160.5050 87° East  Level FlightAware Approximate
12:01PM 37.0263 160.6908 87° East  Level FlightAware Approximate
12:02PM 37.0327 160.8766 87° East  Level FlightAware Approximate
12:03PM 37.0388 161.0625 88° East  Level FlightAware Approximate
12:04PM 37.0447 161.2484 88° East  Level FlightAware Approximate
12:05PM 37.0502 161.4343 88° East  Level FlightAware Approximate
12:06PM 37.0554 161.6202 88° East  Level FlightAware Approximate
12:07PM 37.0604 161.8062 88° East  Level FlightAware Approximate
12:08PM 37.0650 161.9922 88° East  Level FlightAware Approximate
12:09PM 37.0694 162.1782 88° East  Level FlightAware Approximate
12:10PM 37.0735 162.3643 88° East  Level FlightAware Approximate
12:11PM 37.0773 162.5503 88° East  Level FlightAware Approximate
12:12PM 37.0808 162.7364 89° East  Level FlightAware Approximate
12:13PM 37.0840 162.9225 89° East  Level FlightAware Approximate
12:14PM 37.0869 163.1086 89° East  Level FlightAware Approximate
12:15PM 37.0895 163.2947 89° East  Level FlightAware Approximate
12:16PM 37.0918 163.4809 89° East  Level FlightAware Approximate
12:17PM 37.0939 163.6670 89° East  Level FlightAware Approximate
12:18PM 37.0956 163.8531 89° East  Level FlightAware Approximate
12:19PM 37.0971 164.0393 89° East  Level FlightAware Approximate
12:20PM 37.0983 164.2255 89° East  Level FlightAware Approximate
12:21PM 37.0991 164.4116 90° East  Level FlightAware Approximate
12:21PM 37.1000 165.0000 90° East 565 650 33,000  Level Oakland Oceanic (ODAPS)
12:22PM 37.0997 164.5978 90° East  Level FlightAware Approximate
12:23PM 37.1000 164.7840 90° East  Level FlightAware Approximate
12:24PM 37.1000 164.9702 90° East  Level FlightAware Approximate
12:25PM 37.0994 165.1564 90° East  Level FlightAware Approximate
12:26PM 37.0984 165.3425 90° East  Level FlightAware Approximate
12:27PM 37.0951 166.2010 91° East 565 650 33,000  Level FlightAware Transoceanic
12:28PM 37.0932 166.4011 91° East 565 650 33,000  Level FlightAware Transoceanic
12:29PM 37.0909 166.6013 91° East 565 650 33,000  Level FlightAware Transoceanic
12:30PM 37.0882 166.8014 91° East 565 650 33,000  Level FlightAware Transoceanic
12:31PM 37.0852 167.0015 91° East 565 650 33,000  Level FlightAware Transoceanic
12:32PM 37.0819 167.2016 91° East 565 650 33,000  Level FlightAware Transoceanic
12:33PM 37.0782 167.4016 91° East 565 650 33,000  Level FlightAware Transoceanic
12:34PM 37.0742 167.6017 91° East 565 650 33,000  Level FlightAware Transoceanic
12:35PM 37.0699 167.8017 92° East 565 650 33,000 660 Level FlightAware Transoceanic
12:35PM 37.0667 167.8167 92° East 575 662 34,000  Climbing Oakland Oceanic (ODAPS)
12:36PM 37.0652 168.0017 92° East 565 650 33,000 -660 Descending FlightAware Transoceanic
12:37PM 37.0602 168.2017 92° East 565 650 33,000  Level FlightAware Transoceanic
12:38PM 37.0548 168.4016 92° East 565 650 33,000  Level FlightAware Transoceanic
12:39PM 37.0491 168.6015 92° East 565 650 33,000  Level FlightAware Transoceanic
12:40PM 37.0431 168.8014 92° East 565 650 33,000 480 Level FlightAware Transoceanic
12:41PM 37.0353 169.0081 92° East 575 662 34,000 480 Climbing FlightAware Transoceanic
12:42PM 37.0289 169.2065 92° East 575 662 34,000  Level FlightAware Transoceanic
12:43PM 37.0221 169.4049 92° East 575 662 34,000  Level FlightAware Transoceanic
12:44PM 37.0151 169.6033 93° East 575 662 34,000  Level FlightAware Transoceanic
12:45PM 37.0077 169.8017 93° East 575 662 34,000  Level FlightAware Transoceanic
12:45PM 37.0000 169.8000 90° East 562 647 34,000  Level Oakland Oceanic (ODAPS)
12:46PM 37.0000 170.0000 80° East 575 662 34,000  Level FlightAware Transoceanic
12:46PM 37.0000 170.0000 80° East 596 686 34,000  Level Oakland Oceanic (ODAPS)
12:47PM 37.0282 170.1971 80° East 575 662 34,000  Level FlightAware Transoceanic
12:48PM 37.0560 170.3943 80° East 575 662 34,000  Level FlightAware Transoceanic
12:49PM 37.0836 170.5916 80° East 575 662 34,000  Level FlightAware Transoceanic
12:50PM 37.1108 170.7891 80° East 575 662 34,000  Level FlightAware Transoceanic
12:51PM 37.1376 170.9867 80° East 562 647 34,000  Level FlightAware Transoceanic
12:52PM 37.1674 171.2087 81° East 596 686 34,000  Level FlightAware Transoceanic
12:53PM 37.1941 171.4106 81° East 596 686 34,000  Level FlightAware Transoceanic
12:54PM 37.2205 171.6127 81° East 596 686 34,000  Level FlightAware Transoceanic
12:55PM 37.2465 171.8150 81° East 596 686 34,000  Level FlightAware Transoceanic
12:56PM 37.2722 172.0174 81° East 596 686 34,000  Level FlightAware Transoceanic
12:57PM 37.2975 172.2199 81° East 596 686 34,000  Level FlightAware Transoceanic
12:58PM 37.3225 172.4225 81° East 596 686 34,000  Level FlightAware Transoceanic
12:59PM 37.3472 172.6253 81° East 596 686 34,000  Level FlightAware Transoceanic
12:59PM 37.3333 172.5333 81° East 594 684 34,000  Level Oakland Oceanic (ODAPS)
01:00PM 37.3715 172.8282 81° East 596 686 34,000  Level FlightAware Transoceanic
01:01PM 37.3954 173.0313 82° East 596 686 34,000  Level FlightAware Transoceanic
01:02PM 37.4190 173.2345 82° East 596 686 34,000  Level FlightAware Transoceanic
01:03PM 37.4423 173.4378 82° East 596 686 34,000  Level FlightAware Transoceanic
01:04PM 37.4652 173.6412 82° East 596 686 34,000  Level FlightAware Transoceanic
01:05PM 37.4770 173.7678 82° East 594 684 34,000  Level FlightAware Transoceanic
01:06PM 37.4997 173.9740 82° East 594 684 34,000  Level FlightAware Transoceanic
01:07PM 37.5220 174.1803 82° East 594 684 34,000  Level FlightAware Transoceanic
01:08PM 37.5440 174.3867 82° East 594 684 34,000  Level FlightAware Transoceanic
01:09PM 37.5656 174.5933 83° East 594 684 34,000  Level FlightAware Transoceanic
01:10PM 37.5869 174.8000 83° East 594 684 34,000  Level FlightAware Transoceanic
01:11PM 37.6078 175.0067 83° East 594 684 34,000  Level FlightAware Transoceanic
01:12PM 37.6283 175.2137 83° East 594 684 34,000  Level FlightAware Transoceanic
01:13PM 37.6485 175.4207 83° East 594 684 34,000  Level FlightAware Transoceanic
01:13PM 37.6333 175.3000 83° East 589 678 34,000  Level Oakland Oceanic (ODAPS)
01:14PM 37.6683 175.6278 83° East 594 684 34,000  Level FlightAware Transoceanic
01:15PM 37.6878 175.8351 83° East 594 684 34,000  Level FlightAware Transoceanic
01:16PM 37.7068 176.0424 83° East 594 684 34,000  Level FlightAware Transoceanic
01:17PM 37.7256 176.2499 84° East 594 684 34,000  Level FlightAware Transoceanic
01:18PM 37.7439 176.4574 84° East 594 684 34,000  Level FlightAware Transoceanic
01:19PM 37.7470 176.5214 84° East 589 678 34,000  Level FlightAware Transoceanic
01:20PM 37.7647 176.7253 84° East 589 678 34,000  Level FlightAware Transoceanic
01:21PM 37.7820 176.9294 84° East 589 678 34,000  Level FlightAware Transoceanic
01:22PM 37.7990 177.1335 84° East 589 678 34,000  Level FlightAware Transoceanic
01:23PM 37.8157 177.3377 84° East 589 678 34,000  Level FlightAware Transoceanic
01:24PM 37.8320 177.5420 84° East 589 678 34,000  Level FlightAware Transoceanic
01:25PM 37.8479 177.7464 84° East 589 678 34,000  Level FlightAware Transoceanic
01:26PM 37.8635 177.9508 85° East 589 678 34,000  Level FlightAware Transoceanic
01:26PM 37.8833 178.1000 85° East 583 671 34,000  Level Oakland Oceanic (ODAPS)
01:27PM 37.8788 178.1554 85° East 589 678 34,000  Level FlightAware Transoceanic
01:28PM 37.8937 178.3600 85° East 589 678 34,000  Level FlightAware Transoceanic
01:29PM 37.9082 178.5648 85° East 589 678 34,000  Level FlightAware Transoceanic
01:30PM 37.9224 178.7696 85° East 589 678 34,000  Level FlightAware Transoceanic
01:31PM 37.9362 178.9745 85° East 589 678 34,000  Level FlightAware Transoceanic
01:32PM 37.9497 179.1794 85° East 589 678 34,000  Level FlightAware Transoceanic
01:33PM 37.9645 179.3660 86° East 583 671 34,000  Level FlightAware Transoceanic
01:34PM 37.9767 179.5773 86° East 583 671 34,000  Level FlightAware Transoceanic
01:35PM 37.9885 179.7886 86° East 583 671 34,000  Level FlightAware Transoceanic
01:36PM 38.0000 -180.0000 80° East 583 671 34,000  Level FlightAware Transoceanic
01:36PM 38.0000 180.0000 80° East 605 696 34,000  Level Oakland Oceanic (ODAPS)
01:37PM 38.0294 -179.7948 80° East 583 671 34,000  Level FlightAware Transoceanic
01:38PM 38.0585 -179.5895 80° East 583 671 34,000  Level FlightAware Transoceanic
01:39PM 38.0872 -179.3841 80° East 583 671 34,000  Level FlightAware Transoceanic
01:40PM 38.1156 -179.1784 80° East 583 671 34,000  Level FlightAware Transoceanic
01:41PM 38.1436 -178.9726 80° East 583 671 34,000  Level FlightAware Transoceanic
01:41PM 38.1333 -179.0667 80° East 605 696 34,000  Level Oakland Oceanic (ODAPS)
01:42PM 38.1747 -178.7404 80° East 605 696 34,000  Level FlightAware Transoceanic
01:43PM 38.2025 -178.5299 81° East 605 696 34,000  Level FlightAware Transoceanic
01:44PM 38.2299 -178.3192 81° East 605 696 34,000  Level FlightAware Transoceanic
01:45PM 38.2570 -178.1084 81° East 605 696 34,000  Level FlightAware Transoceanic
01:46PM 38.2836 -177.8974 81° East 605 696 34,000  Level FlightAware Transoceanic
01:47PM 38.2997 -177.7860 81° East 605 696 34,000  Level FlightAware Transoceanic
01:48PM 38.3261 -177.5720 81° East 605 696 34,000  Level FlightAware Transoceanic
01:49PM 38.3521 -177.3579 81° East 605 696 34,000  Level FlightAware Transoceanic
01:50PM 38.3777 -177.1436 81° East 605 696 34,000  Level FlightAware Transoceanic
01:51PM 38.4029 -176.9291 82° East 605 696 34,000  Level FlightAware Transoceanic
01:52PM 38.4277 -176.7145 82° East 605 696 34,000  Level FlightAware Transoceanic
01:53PM 38.4521 -176.4997 82° East 605 696 34,000  Level FlightAware Transoceanic
01:54PM 38.4762 -176.2848 82° East 605 696 34,000  Level FlightAware Transoceanic
01:54PM 38.4833 -176.2000 82° East 607 699 34,000  Level Oakland Oceanic (ODAPS)
01:55PM 38.4998 -176.0698 82° East 605 696 34,000  Level FlightAware Transoceanic
01:56PM 38.5230 -175.8546 82° East 605 696 34,000  Level FlightAware Transoceanic
01:57PM 38.5459 -175.6393 82° East 605 696 34,000  Level FlightAware Transoceanic
01:58PM 38.5683 -175.4238 82° East 605 696 34,000  Level FlightAware Transoceanic
01:59PM 38.5904 -175.2083 83° East 605 696 34,000  Level FlightAware Transoceanic
02:00PM 38.6121 -174.9926 83° East 605 696 34,000  Level FlightAware Transoceanic
02:01PM 38.6215 -174.8794 83° East 607 699 34,000  Level FlightAware Transoceanic
02:02PM 38.6431 -174.6588 83° East 607 699 34,000  Level FlightAware Transoceanic
02:03PM 38.6643 -174.4381 83° East 607 699 34,000  Level FlightAware Transoceanic
02:04PM 38.6851 -174.2173 83° East 607 699 34,000  Level FlightAware Transoceanic
02:05PM 38.7054 -173.9963 83° East 607 699 34,000  Level FlightAware Transoceanic
02:06PM 38.7253 -173.7752 83° East 607 699 34,000  Level FlightAware Transoceanic
02:07PM 38.7449 -173.5540 84° East 607 699 34,000  Level FlightAware Transoceanic
02:08PM 38.7640 -173.3327 84° East 607 699 34,000 540 Level FlightAware Transoceanic
02:08PM 38.7667 -173.2167 84° East 623 717 35,000  Climbing Oakland Oceanic (ODAPS)
02:09PM 38.7826 -173.1112 84° East 607 699 34,000 -840 Descending FlightAware Transoceanic
02:10PM 38.8009 -172.8897 84° East 607 699 34,000  Level FlightAware Transoceanic
02:11PM 38.8187 -172.6680 84° East 607 699 34,000  Level FlightAware Transoceanic
02:12PM 38.8362 -172.4462 84° East 607 699 34,000  Level FlightAware Transoceanic
02:13PM 38.8531 -172.2243 84° East 607 699 34,000  Level FlightAware Transoceanic
02:14PM 38.8697 -172.0023 85° East 607 699 34,000 480 Level FlightAware Transoceanic
02:15PM 38.8865 -171.7182 85° East 623 717 35,000 480 Climbing FlightAware Transoceanic
02:16PM 38.9021 -171.5037 85° East 623 717 35,000  Level FlightAware Transoceanic
02:17PM 38.9173 -171.2892 85° East 623 717 35,000  Level FlightAware Transoceanic
02:18PM 38.9320 -171.0745 85° East 623 717 35,000  Level FlightAware Transoceanic
02:19PM 38.9464 -170.8598 85° East 623 717 35,000  Level FlightAware Transoceanic
02:20PM 38.9604 -170.6450 85° East 623 717 35,000  Level FlightAware Transoceanic
02:21PM 38.9740 -170.4301 85° East 623 717 35,000  Level FlightAware Transoceanic
02:22PM 38.9872 -170.2151 86° East 623 717 35,000  Level FlightAware Transoceanic
02:22PM 39.0000 -170.1500 90° East 630 725 35,000  Level Oakland Oceanic (ODAPS)
02:23PM 39.0000 -170.0000 72° East 623 717 35,000  Level FlightAware Transoceanic
02:23PM 39.0000 -170.0000 72° East 627 722 35,000  Level Oakland Oceanic (ODAPS)
02:24PM 39.0513 -169.7936 72° East 623 717 35,000  Level FlightAware Transoceanic
02:25PM 39.1023 -169.5869 72° East 623 717 35,000  Level FlightAware Transoceanic
02:26PM 39.1529 -169.3800 73° East 623 717 35,000  Level FlightAware Transoceanic
02:27PM 39.2031 -169.1727 73° East 623 717 35,000  Level FlightAware Transoceanic
02:28PM 39.2584 -168.9425 73° East 630 725 35,000  Level FlightAware Transoceanic
02:29PM 39.3089 -168.7301 73° East 627 722 35,000  Level FlightAware Transoceanic
02:30PM 39.3590 -168.5174 73° East 627 722 35,000  Level FlightAware Transoceanic
02:31PM 39.4088 -168.3044 73° East 627 722 35,000  Level FlightAware Transoceanic
02:32PM 39.4581 -168.0910 73° East 627 722 35,000  Level FlightAware Transoceanic
02:33PM 39.5071 -167.8774 74° East 627 722 35,000  Level FlightAware Transoceanic
02:34PM 39.5556 -167.6635 74° East 627 722 35,000  Level FlightAware Transoceanic
02:35PM 39.6038 -167.4492 74° East 627 722 35,000  Level FlightAware Transoceanic
02:36PM 39.6516 -167.2347 74° East 627 722 35,000  Level FlightAware Transoceanic
02:36PM 39.6667 -167.1333 74° East 632 727 35,000  Level Oakland Oceanic (ODAPS)
02:37PM 39.6990 -167.0199 74° East 627 722 35,000  Level FlightAware Transoceanic
02:38PM 39.7460 -166.8048 74° East 627 722 35,000  Level FlightAware Transoceanic
02:39PM 39.7926 -166.5894 74° East 627 722 35,000  Level FlightAware Transoceanic
02:40PM 39.8388 -166.3737 74° East 627 722 35,000  Level FlightAware Transoceanic
02:41PM 39.8846 -166.1577 75° East 627 722 35,000  Level FlightAware Transoceanic
02:42PM 39.9498 -165.8179 75° East 632 727 35,000  Level FlightAware Transoceanic
02:43PM 39.9955 -165.5976 75° East 632 727 35,000  Level FlightAware Transoceanic
02:44PM 40.0408 -165.3770 75° East 632 727 35,000  Level FlightAware Transoceanic
02:45PM 40.0857 -165.1561 75° East 632 727 35,000  Level FlightAware Transoceanic
02:46PM 40.1302 -164.9349 75° East 632 727 35,000  Level FlightAware Transoceanic
02:47PM 40.1742 -164.7135 75° East 632 727 35,000  Level FlightAware Transoceanic
02:48PM 40.2179 -164.4917 76° East 632 727 35,000  Level FlightAware Transoceanic
02:49PM 40.2611 -164.2697 76° East 632 727 35,000  Level FlightAware Transoceanic
02:50PM 40.3039 -164.0474 76° East 632 727 35,000  Level FlightAware Transoceanic
02:50PM 40.3167 -164.0333 76° East 637 733 35,000  Level Oakland Oceanic (ODAPS)
02:51PM 40.3462 -163.8248 76° East 632 727 35,000  Level FlightAware Transoceanic
02:52PM 40.3881 -163.6019 76° East 632 727 35,000  Level FlightAware Transoceanic
02:53PM 40.4296 -163.3788 76° East 632 727 35,000  Level FlightAware Transoceanic
02:54PM 40.4707 -163.1554 76° East 632 727 35,000  Level FlightAware Transoceanic
02:55PM 40.5114 -162.9317 77° East 632 727 35,000  Level FlightAware Transoceanic
02:56PM 40.5600 -162.6982 77° East 637 733 35,000  Level FlightAware Transoceanic
02:57PM 40.5991 -162.4747 77° East 637 733 35,000  Level FlightAware Transoceanic
02:58PM 40.6377 -162.2510 77° East 637 733 35,000  Level FlightAware Transoceanic
02:59PM 40.6759 -162.0270 77° East 637 733 35,000  Level FlightAware Transoceanic
03:00PM 40.7136 -161.8028 78° East 637 733 35,000  Level FlightAware Transoceanic
03:01PM 40.7510 -161.5783 78° East 637 733 35,000  Level FlightAware Transoceanic
03:01PM 40.7500 -161.5333 77° East 638 734 35,000  Level Oakland Oceanic (ODAPS)
03:02PM 40.7879 -161.3535 78° East 637 733 35,000  Level FlightAware Transoceanic
03:03PM 40.8243 -161.1286 78° East 637 733 35,000  Level FlightAware Transoceanic
03:04PM 40.8603 -160.9033 78° East 637 733 35,000  Level FlightAware Transoceanic
03:05PM 40.8959 -160.6779 78° East 637 733 35,000  Level FlightAware Transoceanic
03:06PM 40.9310 -160.4521 78° East 637 733 35,000  Level FlightAware Transoceanic
03:07PM 40.9655 -160.2198 78° East 638 734 35,000  Level FlightAware Transoceanic
03:08PM 41.0000 -160.0000 72° East 638 734 35,000  Level FlightAware Transoceanic
03:08PM 41.0000 -160.0000 72° East 629 724 35,000  Level Oakland Oceanic (ODAPS)
03:09PM 41.0525 -159.7896 72° East 638 734 35,000  Level FlightAware Transoceanic
03:10PM 41.1046 -159.5789 72° East 638 734 35,000  Level FlightAware Transoceanic
03:11PM 41.1564 -159.3678 72° East 638 734 35,000  Level FlightAware Transoceanic
03:12PM 41.2078 -159.1564 72° East 638 734 35,000  Level FlightAware Transoceanic
03:13PM 41.2587 -158.9447 72° East 638 734 35,000  Level FlightAware Transoceanic
03:14PM 41.3231 -158.6747 72° East 629 724 35,000  Level FlightAware Transoceanic
03:15PM 41.3754 -158.4526 73° East 629 724 35,000  Level FlightAware Transoceanic
03:15PM 41.3833 -158.4000 73° East 626 720 35,000  Level Oakland Oceanic (ODAPS)
03:16PM 41.4273 -158.2301 73° East 629 724 35,000  Level FlightAware Transoceanic
03:17PM 41.4788 -158.0073 73° East 629 724 35,000  Level FlightAware Transoceanic
03:18PM 41.5299 -157.7841 73° East 629 724 35,000  Level FlightAware Transoceanic
03:19PM 41.5805 -157.5605 73° East 629 724 35,000  Level FlightAware Transoceanic
03:20PM 41.6307 -157.3366 73° East 629 724 35,000  Level FlightAware Transoceanic
03:21PM 41.6866 -157.0679 74° East 626 720 35,000  Level FlightAware Transoceanic
03:22PM 41.7357 -156.8447 74° East 626 720 35,000  Level FlightAware Transoceanic
03:23PM 41.7843 -156.6212 74° East 626 720 35,000  Level FlightAware Transoceanic
03:24PM 41.8325 -156.3973 74° East 626 720 35,000  Level FlightAware Transoceanic
03:25PM 41.8802 -156.1730 74° East 626 720 35,000  Level FlightAware Transoceanic
03:26PM 41.9276 -155.9485 74° East 626 720 35,000  Level FlightAware Transoceanic
03:27PM 41.9744 -155.7236 74° East 626 720 35,000  Level FlightAware Transoceanic
03:28PM 42.0209 -155.4984 75° East 626 720 35,000  Level FlightAware Transoceanic
03:29PM 42.0669 -155.2728 75° East 626 720 35,000  Level FlightAware Transoceanic
03:29PM 42.0667 -155.3167 75° East 619 712 35,000  Level Oakland Oceanic (ODAPS)
03:30PM 42.1124 -155.0469 75° East 626 720 35,000  Level FlightAware Transoceanic
03:31PM 42.1575 -154.8207 75° East 626 720 35,000  Level FlightAware Transoceanic
03:32PM 42.2022 -154.5942 75° East 626 720 35,000  Level FlightAware Transoceanic
03:33PM 42.2464 -154.3674 75° East 626 720 35,000  Level FlightAware Transoceanic
03:34PM 42.2902 -154.1402 75° East 626 720 35,000  Level FlightAware Transoceanic
03:35PM 42.3337 -153.9453 76° East 619 712 35,000  Level FlightAware Transoceanic
03:36PM 42.3766 -153.7156 76° East 619 712 35,000  Level FlightAware Transoceanic
03:37PM 42.4191 -153.4856 76° East 619 712 35,000  Level FlightAware Transoceanic
03:38PM 42.4611 -153.2553 76° East 619 712 35,000  Level FlightAware Transoceanic
03:39PM 42.5026 -153.0247 76° East 619 712 35,000  Level FlightAware Transoceanic
03:40PM 42.5437 -152.7938 77° East 619 712 35,000  Level FlightAware Transoceanic
03:41PM 42.5843 -152.5626 77° East 619 712 35,000  Level FlightAware Transoceanic
03:42PM 42.6245 -152.3311 77° East 619 712 35,000  Level FlightAware Transoceanic
03:42PM 42.6333 -152.2500 77° East 605 696 35,000  Level Oakland Oceanic (ODAPS)
03:43PM 42.6641 -152.0992 77° East 619 712 35,000  Level FlightAware Transoceanic
03:44PM 42.7033 -151.8671 77° East 619 712 35,000  Level FlightAware Transoceanic
03:45PM 42.7421 -151.6347 77° East 619 712 35,000  Level FlightAware Transoceanic
03:46PM 42.7803 -151.4020 77° East 619 712 35,000  Level FlightAware Transoceanic
03:47PM 42.8181 -151.1691 78° East 619 712 35,000  Level FlightAware Transoceanic
03:48PM 42.8555 -150.9358 78° East 619 712 35,000  Level FlightAware Transoceanic
03:49PM 42.8586 -150.9032 78° East 605 696 35,000  Level FlightAware Transoceanic
03:50PM 42.8946 -150.6778 78° East 605 696 35,000  Level FlightAware Transoceanic
03:51PM 42.9302 -150.4521 78° East 605 696 35,000  Level FlightAware Transoceanic
03:52PM 42.9653 -150.2262 78° East 605 696 35,000  Level FlightAware Transoceanic
03:53PM 43.0000 -150.0000 87° East 605 696 35,000  Level FlightAware Transoceanic
03:53PM 43.0000 -150.0000 87° East 574 661 35,000  Level Oakland Oceanic (ODAPS)
03:54PM 43.0091 -149.7877 87° East 605 696 35,000  Level FlightAware Transoceanic
03:55PM 43.0177 -149.5753 87° East 605 696 35,000  Level FlightAware Transoceanic
03:56PM 43.0260 -149.3629 87° East 605 696 35,000  Level FlightAware Transoceanic
03:56PM 43.0333 -149.1833 87° East 574 661 35,000  Level Oakland Oceanic (ODAPS)
03:57PM 43.0339 -149.1505 87° East 605 696 35,000  Level FlightAware Transoceanic
03:58PM 43.0414 -148.9379 87° East 605 696 35,000  Level FlightAware Transoceanic
03:59PM 43.0494 -148.6976 87° East 574 661 35,000  Level FlightAware Transoceanic
04:00PM 43.0562 -148.4804 88° East 574 661 35,000  Level FlightAware Transoceanic
04:01PM 43.0626 -148.2631 88° East 574 661 35,000  Level FlightAware Transoceanic
04:02PM 43.0679 -148.0910 88° East 574 661 35,000  Level FlightAware Transoceanic
04:03PM 43.0736 -147.8724 88° East 574 661 35,000  Level FlightAware Transoceanic
04:04PM 43.0788 -147.6538 88° East 574 661 35,000  Level FlightAware Transoceanic
04:05PM 43.0836 -147.4351 88° East 574 661 35,000  Level FlightAware Transoceanic
04:06PM 43.0881 -147.2164 88° East 574 661 35,000  Level FlightAware Transoceanic
04:07PM 43.0921 -146.9977 89° East 574 661 35,000  Level FlightAware Transoceanic
04:08PM 43.0956 -146.7789 89° East 574 661 35,000  Level FlightAware Transoceanic
04:09PM 43.0988 -146.5601 89° East 574 661 35,000  Level FlightAware Transoceanic
04:10PM 43.1016 -146.3413 89° East 574 661 35,000  Level FlightAware Transoceanic
04:10PM 43.1000 -146.1667 89° East 567 652 35,000  Level Oakland Oceanic (ODAPS)
04:11PM 43.1039 -146.1225 89° East 574 661 35,000  Level FlightAware Transoceanic
04:12PM 43.1058 -145.9036 89° East 574 661 35,000  Level FlightAware Transoceanic
04:13PM 43.1073 -145.6848 90° East 574 661 35,000  Level FlightAware Transoceanic
04:14PM 43.1084 -145.4659 90° East 574 661 35,000  Level FlightAware Transoceanic
04:15PM 43.1091 -145.2470 90° East 574 661 35,000  Level FlightAware Transoceanic
04:16PM 43.1093 -145.0282 90° East 574 661 35,000  Level FlightAware Transoceanic
04:17PM 43.1062 -144.6768 90° East 567 652 35,000  Level FlightAware Transoceanic
04:18PM 43.1055 -144.4640 90° East 567 652 35,000  Level FlightAware Transoceanic
04:19PM 43.1044 -144.2512 90° East 567 652 35,000  Level FlightAware Transoceanic
04:20PM 43.1030 -144.0383 91° East 567 652 35,000  Level FlightAware Transoceanic
04:21PM 43.1011 -143.8255 91° East 567 652 35,000  Level FlightAware Transoceanic
04:22PM 43.0988 -143.6127 91° East 567 652 35,000  Level FlightAware Transoceanic
04:23PM 43.0961 -143.3999 91° East 567 652 35,000  Level FlightAware Transoceanic
04:24PM 43.0931 -143.1872 91° East 567 652 35,000  Level FlightAware Transoceanic
04:24PM 43.1000 -143.2000 91° East 558 642 35,000  Level Oakland Oceanic (ODAPS)
04:25PM 43.0896 -142.9745 91° East 567 652 35,000  Level FlightAware Transoceanic
04:26PM 43.0858 -142.7617 91° East 567 652 35,000  Level FlightAware Transoceanic
04:27PM 43.0816 -142.5491 92° East 567 652 35,000  Level FlightAware Transoceanic
04:28PM 43.0769 -142.3364 92° East 567 652 35,000  Level FlightAware Transoceanic
04:29PM 43.0719 -142.1238 92° East 567 652 35,000  Level FlightAware Transoceanic
04:30PM 43.0707 -141.9188 92° East 558 642 35,000  Level FlightAware Transoceanic
04:31PM 43.0644 -141.7054 92° East 558 642 35,000  Level FlightAware Transoceanic
04:32PM 43.0578 -141.4920 93° East 558 642 35,000  Level FlightAware Transoceanic
04:33PM 43.0507 -141.2787 93° East 558 642 35,000  Level FlightAware Transoceanic
04:34PM 43.0432 -141.0654 93° East 558 642 35,000  Level FlightAware Transoceanic
04:35PM 43.0354 -140.8522 93° East 558 642 35,000  Level FlightAware Transoceanic
04:36PM 43.0271 -140.6391 93° East 558 642 35,000  Level FlightAware Transoceanic
04:37PM 43.0185 -140.4260 93° East 558 642 35,000  Level FlightAware Transoceanic
04:38PM 43.0094 -140.2130 93° East 558 642 35,000 1,440 Level FlightAware Transoceanic
04:38PM 43.0167 -140.3000 94° East 543 625 37,000  Climbing Oakland Oceanic (ODAPS)
04:39PM 43.0000 -140.0000 102° East 558 642 35,000  Descending FlightAware Transoceanic
04:39PM 43.0000 -140.0333 90° East 534 615 37,000 2,400 Climbing Oakland Oceanic (ODAPS)
04:39PM 43.0000 -140.0333 90° East 534 615 37,000 -5,760 Level Oakland Oceanic (ODAPS)
04:40PM 42.9715 -139.8129 102° East 558 642 35,000 -1,740 Descending FlightAware Transoceanic
04:41PM 42.9428 -139.6259 102° East 558 642 35,000  Level FlightAware Transoceanic
04:42PM 42.9137 -139.4391 102° East 558 642 35,000  Level FlightAware Transoceanic
04:43PM 42.8844 -139.2525 102° East 558 642 35,000 960 Level FlightAware Transoceanic
04:44PM 42.8822 -139.2386 102° East 543 625 37,000 960 Climbing FlightAware Transoceanic
04:45PM 42.8461 -139.0123 102° East 534 615 37,000  Level FlightAware Transoceanic
04:46PM 42.8143 -138.8153 102° East 534 615 37,000  Level FlightAware Transoceanic
04:47PM 42.7822 -138.6186 103° East 534 615 37,000  Level FlightAware Transoceanic
04:48PM 42.7497 -138.4220 103° East 534 615 37,000  Level FlightAware Transoceanic
04:49PM 42.7169 -138.2257 103° East 534 615 37,000  Level FlightAware Transoceanic
04:50PM 42.6838 -138.0296 103° East 534 615 37,000  Level FlightAware Transoceanic
04:50PM 42.6667 -137.9000 103° East 521 600 37,000  Level Oakland Oceanic (ODAPS)
04:51PM 42.6503 -137.8336 103° East 534 615 37,000  Level FlightAware Transoceanic
04:52PM 42.6165 -137.6380 103° East 534 615 37,000  Level FlightAware Transoceanic
04:52PM 42.6000 -137.5667 103° East 522 601 37,000  Level Oakland Oceanic (ODAPS)
04:53PM 42.5824 -137.4425 103° East 534 615 37,000  Level FlightAware Transoceanic
04:54PM 42.5479 -137.2472 104° East 534 615 37,000  Level FlightAware Transoceanic
04:55PM 42.5131 -137.0521 104° East 534 615 37,000  Level FlightAware Transoceanic
04:56PM 42.4780 -136.8573 104° East 534 615 37,000  Level FlightAware Transoceanic
04:57PM 42.4327 -136.5866 104° East 521 600 37,000  Level FlightAware Transoceanic
04:58PM 42.3973 -136.4363 104° East 522 601 37,000  Level FlightAware Transoceanic
04:59PM 42.3624 -136.2486 104° East 522 601 37,000  Level FlightAware Transoceanic
05:00PM 42.3272 -136.0612 104° East 522 601 37,000  Level FlightAware Transoceanic
05:01PM 42.2918 -135.8739 104° East 522 601 37,000  Level FlightAware Transoceanic
05:02PM 42.2560 -135.6869 105° East 522 601 37,000  Level FlightAware Transoceanic
05:03PM 42.2199 -135.5000 105° East 522 601 37,000  Level FlightAware Transoceanic
05:04PM 42.1835 -135.3134 105° East 522 601 37,000  Level FlightAware Transoceanic
05:04PM 42.1667 -135.1833 105° East 515 593 37,000  Level Oakland Oceanic (ODAPS)
05:05PM 42.1468 -135.1270 105° East 522 601 37,000  Level FlightAware Transoceanic
05:06PM 42.1098 -134.9409 105° East 522 601 37,000  Level FlightAware Transoceanic
05:06PM 42.1167 -134.9500 105° East 514 592 37,000  Level Oakland Oceanic (ODAPS)
05:07PM 42.0725 -134.7549 105° East 522 601 37,000  Level FlightAware Transoceanic
05:08PM 42.0350 -134.5691 105° East 522 601 37,000  Level FlightAware Transoceanic
05:09PM 41.9971 -134.3836 105° East 522 601 37,000  Level FlightAware Transoceanic
05:10PM 41.9589 -134.1983 106° East 522 601 37,000  Level FlightAware Transoceanic
05:11PM 41.9364 -134.0570 106° East 515 593 37,000  Level FlightAware Transoceanic
05:12PM 41.8870 -133.8354 106° East 514 592 37,000  Level FlightAware Transoceanic
05:13PM 41.8477 -133.6504 106° East 514 592 37,000  Level FlightAware Transoceanic
05:14PM 41.8080 -133.4656 106° East 514 592 37,000  Level FlightAware Transoceanic
05:15PM 41.7681 -133.2811 106° East 514 592 37,000  Level FlightAware Transoceanic
05:16PM 41.7279 -133.0968 106° East 514 592 37,000  Level FlightAware Transoceanic
05:17PM 41.6874 -132.9128 106° East 514 592 37,000  Level FlightAware Transoceanic
05:18PM 41.6466 -132.7289 107° East 514 592 37,000  Level FlightAware Transoceanic
05:19PM 41.6055 -132.5453 107° East 514 592 37,000  Level FlightAware Transoceanic
05:20PM 41.5642 -132.3620 107° East 514 592 37,000  Level FlightAware Transoceanic
05:20PM 41.5833 -132.4500 107° East 499 574 37,000  Level Oakland Oceanic (ODAPS)
05:21PM 41.5225 -132.1788 107° East 514 592 37,000  Level FlightAware Transoceanic
05:22PM 41.4805 -131.9959 107° East 514 592 37,000  Level FlightAware Transoceanic
05:23PM 41.4383 -131.8133 107° East 514 592 37,000  Level FlightAware Transoceanic
05:24PM 41.3957 -131.6309 107° East 514 592 37,000  Level FlightAware Transoceanic
05:25PM 41.3529 -131.4487 107° East 514 592 37,000  Level FlightAware Transoceanic
05:26PM 41.3397 -131.3946 107° East 499 574 37,000  Level FlightAware Transoceanic
05:27PM 41.2982 -131.2195 108° East 499 574 37,000  Level FlightAware Transoceanic
05:28PM 41.2564 -131.0446 108° East 499 574 37,000  Level FlightAware Transoceanic
05:29PM 41.2143 -130.8700 108° East 499 574 37,000  Level FlightAware Transoceanic
05:30PM 41.1720 -130.6955 108° East 499 574 37,000  Level FlightAware Transoceanic
05:31PM 41.1294 -130.5213 108° East 499 574 37,000  Level FlightAware Transoceanic
05:32PM 41.0865 -130.3473 108° East 499 574 37,000  Level FlightAware Transoceanic
05:33PM 41.0434 -130.1735 108° East 499 574 37,000  Level FlightAware Transoceanic
05:33PM 41.0167 -130.0667 108° East 477 549 37,000  Level Oakland Oceanic (ODAPS)
05:34PM 41.0000 -130.0000 106° East 499 574 37,000  Level FlightAware Transoceanic
05:34PM 41.0000 -130.0000 106° East 487 560 37,000  Level Oakland Oceanic (ODAPS)
05:35PM 40.9610 -129.8218 106° East 499 574 37,000  Level FlightAware Transoceanic
05:36PM 40.9217 -129.6438 106° East 499 574 37,000  Level FlightAware Transoceanic
05:37PM 40.8821 -129.4660 106° East 499 574 37,000  Level FlightAware Transoceanic
05:38PM 40.8423 -129.2885 107° East 499 574 37,000  Level FlightAware Transoceanic
05:39PM 40.8022 -129.1111 107° East 499 574 37,000  Level FlightAware Transoceanic
05:40PM 40.7753 -128.9930 107° East 487 560 37,000  Level FlightAware Transoceanic
05:41PM 40.7370 -128.8259 107° East 487 560 37,000  Level FlightAware Transoceanic
05:42PM 40.6985 -128.6589 107° East 487 560 37,000  Level FlightAware Transoceanic
05:43PM 40.6597 -128.4921 107° East 487 560 37,000  Level FlightAware Transoceanic
05:44PM 40.6207 -128.3255 107° East 487 560 37,000  Level FlightAware Transoceanic
05:45PM 40.5814 -128.1592 107° East 487 560 37,000  Level FlightAware Transoceanic
05:46PM 40.5419 -127.9930 107° East 487 560 37,000  Level FlightAware Transoceanic
05:47PM 40.5022 -127.8270 108° East 487 560 37,000 -1,260 Level FlightAware Transoceanic
05:47PM 40.4833 -127.7333 108° East 483 556 35,000  Descending Oakland Oceanic (ODAPS)
05:48PM 40.4622 -127.6612 108° East 487 560 37,000  Climbing FlightAware Transoceanic
05:48PM 40.4278 -127.5189 113° Southeast 482 555 35,000  Descending Oakland Center
05:49PM 40.4220 -127.4956 108° East 487 560 37,000  Climbing FlightAware Transoceanic
05:49PM 40.3858 -127.3522 129° Southeast 482 555 35,000  Descending Oakland Center
05:50PM 40.3816 -127.3302 108° East 487 560 37,000  Climbing FlightAware Transoceanic
05:50PM 40.3219 -127.3473 129° Southeast  Level Estimated
05:50PM 40.3450 -127.1853 108° East 483 556 35,000  Level Oakland Center
05:51PM 40.3409 -127.1650 108° East 487 560 37,000  Climbing FlightAware Transoceanic
05:51PM 40.3028 -127.0178 108° East 485 558 35,000  Descending Oakland Center
05:52PM 40.3000 -127.0000 112° Southeast 487 560 37,000 1,920 Climbing FlightAware Transoceanic
05:53PM 40.2458 -126.8274 112° Southeast 487 560 37,000 -2,040 Level FlightAware Transoceanic
05:53PM 40.2575 -126.8517 110° East 485 558 35,000 -2,040 Descending Oakland Center
05:54PM 40.1961 -126.6700 113° Southeast 483 556 35,000 -120 Level FlightAware Transoceanic
05:54PM 40.1811 -126.7003 123° Southeast 495 570 34,900 -120 Descending Oakland Center
05:55PM 40.0933 -126.5600 129° Southeast 500 575 34,900  Level Oakland Center
05:56PM 40.0069 -126.4194 129° Southeast 499 574 35,000  Climbing Oakland Center
05:57PM 39.9044 -126.2506 128° Southeast 498 573 35,000  Level Oakland Center
05:58PM 39.8175 -126.1103 129° Southeast 499 574 35,000  Level Oakland Center
05:59PM 39.7308 -125.9697 129° Southeast 500 575 35,000 -60 Level Oakland Center
06:00PM 39.6442 -125.8311 129° Southeast 499 574 34,900  Descending Oakland Center
06:01PM 39.5572 -125.6925 129° Southeast 497 572 35,000  Climbing Oakland Center
06:02PM 39.4703 -125.5542 129° Southeast 497 572 35,000 -60 Level Oakland Center
06:03PM 39.3711 -125.3956 129° Southeast 497 572 34,900 -60 Descending Oakland Center
06:04PM 39.2828 -125.2561 129° Southeast 501 577 34,900  Level Oakland Center
06:05PM 39.1961 -125.1192 129° Southeast 495 570 34,900  Level Oakland Center
06:06PM 39.1053 -124.9769 129° Southeast 495 570 34,900  Level Oakland Center
06:07PM 39.0167 -124.8397 130° Southeast 500 575 35,000  Climbing Oakland Center
06:08PM 38.9294 -124.7053 130° Southeast 493 567 35,000 -60 Level Oakland Center
06:09PM 38.8431 -124.5719 130° Southeast 489 563 34,900  Descending Oakland Center
06:10PM 38.7561 -124.4367 129° Southeast 493 567 35,000  Climbing Oakland Center
06:11PM 38.6689 -124.3039 130° Southeast 490 564 35,000  Level Oakland Center
06:12PM 38.5675 -124.1478 130° Southeast 490 564 35,000  Level Oakland Center
06:13PM 38.4797 -124.0147 130° Southeast 489 563 35,000  Level Oakland Center
06:14PM 38.3922 -123.8822 130° Southeast 490 564 35,000 -60 Level Oakland Center
06:15PM 38.3047 -123.7500 130° Southeast 490 564 34,900 -60 Descending Oakland Center
06:16PM 38.2172 -123.6189 130° Southeast 488 562 34,900  Level Oakland Center
06:17PM 38.1300 -123.4894 131° Southeast 487 560 34,900  Level Oakland Center
06:18PM 38.0406 -123.3586 131° Southeast 492 566 35,000  Climbing Oakland Center
06:19PM 37.9358 -123.2039 131° Southeast 487 560 34,900  Descending Oakland Center
06:20PM 37.8497 -123.0761 130° Southeast 481 554 35,000  Climbing Oakland Center
06:21PM 37.7606 -122.9483 131° Southeast 489 563 35,000  Level Oakland Center
06:22PM 37.6731 -122.8206 131° Southeast 489 563 35,000  Level Oakland Center
06:23PM 37.5853 -122.6914 131° Southeast 493 567 35,000  Level Oakland Center
06:24PM 37.4972 -122.5617 131° Southeast 493 567 35,000  Level Oakland Center
06:25PM 37.3928 -122.4100 131° Southeast 484 557 35,000  Level Oakland Center
06:26PM 37.3042 -122.2822 131° Southeast 486 559 35,000 -60 Level Oakland Center
06:27PM 37.2156 -122.1536 131° Southeast 489 563 34,900 -60 Descending Oakland Center
06:28PM 37.1261 -122.0272 132° Southeast 487 560 34,900  Level Oakland Center
06:29PM 37.0381 -121.9003 131° Southeast 486 559 34,900  Level Oakland Center
06:30PM 36.9478 -121.7747 132° Southeast 487 560 35,000  Climbing Oakland Center
06:31PM 36.8581 -121.6492 132° Southeast 488 562 35,000 -60 Level Oakland Center
06:32PM 36.7653 -121.5178 131° Southeast 490 564 34,900  Descending Oakland Center
06:33PM 36.6750 -121.3911 132° Southeast 491 565 35,000  Climbing Oakland Center
06:34PM 36.5653 -121.2353 131° Southeast 497 572 35,000  Level Oakland Center
06:35PM 36.4736 -121.1072 132° Southeast 497 572 35,000  Level Oakland Center
06:37PM 36.3806 -120.9808 132° Southeast 498 573 35,000  Level Oakland Center
06:38PM 36.2889 -120.8519 131° Southeast 498 573 35,000  Level Oakland Center
06:39PM 36.1956 -120.7242 132° Southeast 500 575 35,000  Level Oakland Center
06:40PM 36.1028 -120.5939 131° Southeast 501 577 35,000 -60 Level Oakland Center
06:41PM 36.0086 -120.4664 132° Southeast 502 578 34,900  Descending Oakland Center
06:42PM 35.9139 -120.3394 133° Southeast 501 577 35,000  Climbing Oakland Center
06:43PM 35.8192 -120.2106 132° Southeast 504 580 35,000 -60 Level Oakland Center
06:44PM 35.7250 -120.0819 132° Southeast 503 579 34,900  Descending Oakland Center
06:45PM 35.6261 -119.9581 134° Southeast 503 579 35,000  Climbing Oakland Center
06:45PM 35.5350 -119.8808 145° Southeast 498 573 35,000  Level Los Angeles Center
06:46PM 35.4881 -119.8397 145° Southeast 501 577 35,000 -540 Level Oakland Center
06:47PM 35.3736 -119.7419 145° Southeast 498 573 34,300 -1,200 Descending Oakland Center
06:47PM 35.3078 -119.6847 145° Southeast 496 571 33,000 -1,920 Descending Los Angeles Center
06:48PM 35.1981 -119.5903 145° Southeast 486 559 31,000 -1,980 Descending Los Angeles Center
06:50PM 35.0939 -119.5008 145° Southeast 466 536 29,000 -2,040 Descending Los Angeles Center
06:51PM 34.9700 -119.3981 146° Southeast 450 518 26,800 -1,920 Descending Los Angeles Center
06:52PM 34.8717 -119.3142 145° Southeast 438 504 25,000 -1,740 Descending Los Angeles Center
06:53PM 34.7758 -119.2336 145° Southeast 424 488 23,200 -1,740 Descending Los Angeles Center
06:54PM 34.6836 -119.1550 145° Southeast 410 472 21,500 -1,800 Descending Los Angeles Center
06:55PM 34.5828 -119.0703 145° Southeast 397 457 19,600 -1,740 Descending Los Angeles Center
06:56PM 34.4956 -118.9978 146° Southeast 379 436 18,000 -1,620 Descending Los Angeles Center
06:57PM 34.4117 -118.9261 145° Southeast 371 427 16,300 -1,620 Descending Los Angeles Center
06:58PM 34.3231 -118.8689 152° Southeast 361 415 14,700 -1,560 Descending Los Angeles Center
06:59PM 34.2294 -118.8353 163° South 351 404 13,100 -1,560 Descending Los Angeles Center
07:00PM 34.1217 -118.7958 163° South 335 386 11,500 -1,080 Descending Los Angeles Center
07:01PM 34.0439 -118.7511 155° Southeast 311 358 10,900 -780 Descending Los Angeles Center
07:02PM 34.0275 -118.6494 101° East 288 331 10,000 -1,020 Descending Los Angeles Center
07:03PM 34.0194 -118.5539 96° East 289 333 8,900 -1,020 Descending Los Angeles Center
07:04PM 34.0108 -118.4656 97° East 268 308 8,000 -960 Descending Los Angeles Center
07:05PM 34.0200 -118.3844 82° East 268 308 7,000 -1,380 Descending Los Angeles Center
07:06PM 34.0300 -118.2969 82° East 267 307 5,200 -1,980 Descending Los Angeles Center
07:07PM 34.0403 -118.1989 83° East 254 292 3,000 -1,260 Descending Los Angeles Center
07:08PM 34.0453 -118.1317 85° East 224 258 2,600 -240 Descending Los Angeles Center
07:09PM 34.0136 -118.1056 146° Southeast 195 224 2,600 -240 Level Los Angeles Center
07:10PM 33.9833 -118.1667 239° Southwest 184 212 2,200 -240 Descending Southern California TRACON
07:11PM 33.9667 -118.2167 248° West 184 212 2,200 -60 Level Southern California TRACON
07:12PM 33.9667 -118.2833 270° West 170 196 2,100 -480 Descending Southern California TRACON
07:13PM 33.9600 -118.3314 261° West 163 188 1,300 -720 Descending Los Angeles Center
07:14PM 33.9561 -118.3753 264° West 146 168 600 -600 Descending Los Angeles Center
07:15PM 33.9506 -118.4242 262° West 140 161 100 -540 Descending Los Angeles Center
07:17PM 33.9425 -118.4081 239° Southwest  Level Estimated